sensor_id;sensor_type;location;lat;lon;timestamp;temperature;humidity
11091;DHT22;5599;52.210;21.046;2024-01-11T00:00:51;-4.80;99.90
11091;DHT22;5599;52.210;21.046;2024-01-11T00:03:22;-4.80;99.90
11091;DHT22;5599;52.210;21.046;2024-01-11T00:05:51;-4.90;99.90
11091;DHT22;5599;52.210;21.046;2024-01-11T00:08:20;-4.90;99.90
11091;DHT22;5599;52.210;21.046;2024-01-11T00:10:50;-4.90;99.90
11091;DHT22;5599;52.210;21.046;2024-01-11T00:13:19;-4.90;99.90
11091;DHT22;5599;52.210;21.046;2024-01-11T00:15:48;-4.80;1.00
11091;DHT22;5599;52.210;21.046;2024-01-11T00:18:17;-4.80;99.90
11091;DHT22;5599;52.210;21.046;2024-01-11T00:20:48;-4.70;1.00
11091;DHT22;5599;52.210;21.046;2024-01-11T00:23:17;-4.80;99.90
11091;DHT22;5599;52.210;21.046;2024-01-11T00:25:46;-4.80;1.00
11091;DHT22;5599;52.210;21.046;2024-01-11T00:28:15;-4.80;1.00
11091;DHT22;5599;52.210;21.046;2024-01-11T00:30:45;-4.80;1.00
11091;DHT22;5599;52.210;21.046;2024-01-11T00:33:14;-4.80;1.00
11091;DHT22;5599;52.210;21.046;2024-01-11T00:35:43;-4.80;1.00
11091;DHT22;5599;52.210;21.046;2024-01-11T00:38:14;-4.80;1.00
11091;DHT22;5599;52.210;21.046;2024-01-11T00:40:44;-4.80;1.00
11091;DHT22;5599;52.210;21.046;2024-01-11T00:43:13;-4.80;99.90
11091;DHT22;5599;52.210;21.046;2024-01-11T00:45:43;-4.80;1.00
11091;DHT22;5599;52.210;21.046;2024-01-11T00:48:13;-4.70;99.90
11091;DHT22;5599;52.210;21.046;2024-01-11T00:50:42;-4.70;99.90
11091;DHT22;5599;52.210;21.046;2024-01-11T00:53:14;-4.70;99.90
11091;DHT22;5599;52.210;21.046;2024-01-11T00:55:43;-4.70;99.90
11091;DHT22;5599;52.210;21.046;2024-01-11T00:58:12;-4.70;1.00
11091;DHT22;5599;52.210;21.046;2024-01-11T01:00:50;-4.70;99.90
11091;DHT22;5599;52.210;21.046;2024-01-11T01:03:20;-4.70;99.90
11091;DHT22;5599;52.210;21.046;2024-01-11T01:05:50;-4.70;99.90
11091;DHT22;5599;52.210;21.046;2024-01-11T01:08:19;-4.70;99.90
11091;DHT22;5599;52.210;21.046;2024-01-11T01:10:48;-4.60;1.00
11091;DHT22;5599;52.210;21.046;2024-01-11T01:13:17;-4.70;99.90
11091;DHT22;5599;52.210;21.046;2024-01-11T01:15:46;-4.70;99.90
11091;DHT22;5599;52.210;21.046;2024-01-11T01:18:17;-4.80;1.00
11091;DHT22;5599;52.210;21.046;2024-01-11T01:20:47;-4.70;1.00
11091;DHT22;5599;52.210;21.046;2024-01-11T01:23:16;-4.60;99.90
11091;DHT22;5599;52.210;21.046;2024-01-11T01:25:46;-4.60;1.00
11091;DHT22;5599;52.210;21.046;2024-01-11T01:28:16;-4.60;1.00
11091;DHT22;5599;52.210;21.046;2024-01-11T01:30:45;-4.70;99.90
11091;DHT22;5599;52.210;21.046;2024-01-11T01:33:14;-4.60;1.00
11091;DHT22;5599;52.210;21.046;2024-01-11T01:35:45;-4.50;99.90
11091;DHT22;5599;52.210;21.046;2024-01-11T01:38:15;-4.50;99.90
11091;DHT22;5599;52.210;21.046;2024-01-11T01:40:45;-4.50;99.90
11091;DHT22;5599;52.210;21.046;2024-01-11T01:43:14;-4.40;1.00
11091;DHT22;5599;52.210;21.046;2024-01-11T01:45:43;-4.40;1.00
11091;DHT22;5599;52.210;21.046;2024-01-11T01:48:12;-4.30;99.90
11091;DHT22;5599;52.210;21.046;2024-01-11T01:50:42;-4.40;99.90
11091;DHT22;5599;52.210;21.046;2024-01-11T01:53:19;-4.40;99.90
11091;DHT22;5599;52.210;21.046;2024-01-11T01:55:50;-4.40;1.00
11091;DHT22;5599;52.210;21.046;2024-01-11T01:58:21;-4.50;1.00
11091;DHT22;5599;52.210;21.046;2024-01-11T02:00:51;-4.40;99.90
11091;DHT22;5599;52.210;21.046;2024-01-11T02:03:21;-4.40;1.00
11091;DHT22;5599;52.210;21.046;2024-01-11T02:05:51;-4.30;1.00
11091;DHT22;5599;52.210;21.046;2024-01-11T02:08:22;-4.40;99.90
11091;DHT22;5599;52.210;21.046;2024-01-11T02:10:52;-4.30;1.00
11091;DHT22;5599;52.210;21.046;2024-01-11T02:13:22;-4.40;99.90
11091;DHT22;5599;52.210;21.046;2024-01-11T02:15:51;-4.40;18.20
11091;DHT22;5599;52.210;21.046;2024-01-11T02:18:20;-4.40;99.90
11091;DHT22;5599;52.210;21.046;2024-01-11T02:20:49;-4.40;99.90
11091;DHT22;5599;52.210;21.046;2024-01-11T02:23:24;-4.30;1.00
11091;DHT22;5599;52.210;21.046;2024-01-11T02:25:55;-4.30;1.00
11091;DHT22;5599;52.210;21.046;2024-01-11T02:28:24;-4.20;99.90
11091;DHT22;5599;52.210;21.046;2024-01-11T02:30:53;-4.30;1.00
11091;DHT22;5599;52.210;21.046;2024-01-11T02:33:23;-4.20;76.80
11091;DHT22;5599;52.210;21.046;2024-01-11T02:35:52;-4.10;99.90
11091;DHT22;5599;52.210;21.046;2024-01-11T02:38:22;-4.10;15.20
11091;DHT22;5599;52.210;21.046;2024-01-11T02:40:51;-4.20;21.00
11091;DHT22;5599;52.210;21.046;2024-01-11T02:43:22;-4.30;81.30
11091;DHT22;5599;52.210;21.046;2024-01-11T02:45:54;-4.20;1.00
11091;DHT22;5599;52.210;21.046;2024-01-11T02:48:27;-4.20;99.90
11091;DHT22;5599;52.210;21.046;2024-01-11T02:50:58;-4.20;1.00
11091;DHT22;5599;52.210;21.046;2024-01-11T02:53:27;-4.20;1.00
11091;DHT22;5599;52.210;21.046;2024-01-11T02:56:02;-4.20;28.30
11091;DHT22;5599;52.210;21.046;2024-01-11T02:58:33;-4.20;99.90
11091;DHT22;5599;52.210;21.046;2024-01-11T03:01:02;-4.20;99.90
11091;DHT22;5599;52.210;21.046;2024-01-11T03:03:31;-4.30;99.90
11091;DHT22;5599;52.210;21.046;2024-01-11T03:06:00;-4.30;1.00
11091;DHT22;5599;52.210;21.046;2024-01-11T03:08:29;-4.20;1.00
11091;DHT22;5599;52.210;21.046;2024-01-11T03:10:58;-4.30;1.00
11091;DHT22;5599;52.210;21.046;2024-01-11T03:13:28;-4.20;1.00
11091;DHT22;5599;52.210;21.046;2024-01-11T03:15:58;-4.20;1.00
11091;DHT22;5599;52.210;21.046;2024-01-11T03:18:27;-4.30;1.00
11091;DHT22;5599;52.210;21.046;2024-01-11T03:20:58;-4.20;25.40
11091;DHT22;5599;52.210;21.046;2024-01-11T03:23:27;-4.20;81.90
11091;DHT22;5599;52.210;21.046;2024-01-11T03:25:56;-4.20;99.90
11091;DHT22;5599;52.210;21.046;2024-01-11T03:28:26;-4.20;99.90
11091;DHT22;5599;52.210;21.046;2024-01-11T03:30:55;-4.10;99.90
11091;DHT22;5599;52.210;21.046;2024-01-11T03:33:25;-4.10;99.90
11091;DHT22;5599;52.210;21.046;2024-01-11T03:35:55;-4.20;99.90
11091;DHT22;5599;52.210;21.046;2024-01-11T03:38:24;-4.20;99.90
11091;DHT22;5599;52.210;21.046;2024-01-11T03:40:53;-4.20;99.90
11091;DHT22;5599;52.210;21.046;2024-01-11T03:43:23;-4.20;99.90
11091;DHT22;5599;52.210;21.046;2024-01-11T03:45:53;-4.20;99.90
11091;DHT22;5599;52.210;21.046;2024-01-11T03:48:22;-4.20;99.90
11091;DHT22;5599;52.210;21.046;2024-01-11T03:50:53;-4.20;99.90
11091;DHT22;5599;52.210;21.046;2024-01-11T03:53:22;-4.20;99.90
11091;DHT22;5599;52.210;21.046;2024-01-11T03:55:52;-4.20;99.90
11091;DHT22;5599;52.210;21.046;2024-01-11T03:58:21;-4.20;99.90
11091;DHT22;5599;52.210;21.046;2024-01-11T04:00:51;-4.20;99.90
11091;DHT22;5599;52.210;21.046;2024-01-11T04:03:20;-4.30;99.90
11091;DHT22;5599;52.210;21.046;2024-01-11T04:05:49;-4.20;99.90
11091;DHT22;5599;52.210;21.046;2024-01-11T04:08:20;-4.20;99.90
11091;DHT22;5599;52.210;21.046;2024-01-11T04:10:50;-4.20;99.90
11091;DHT22;5599;52.210;21.046;2024-01-11T04:13:19;-4.20;99.90
11091;DHT22;5599;52.210;21.046;2024-01-11T04:15:51;-4.20;99.90
11091;DHT22;5599;52.210;21.046;2024-01-11T04:18:20;-4.20;99.90
11091;DHT22;5599;52.210;21.046;2024-01-11T04:20:50;-4.20;99.90
11091;DHT22;5599;52.210;21.046;2024-01-11T04:23:21;-4.20;99.90
11091;DHT22;5599;52.210;21.046;2024-01-11T04:25:50;-4.20;99.90
11091;DHT22;5599;52.210;21.046;2024-01-11T04:28:19;-4.20;99.90
11091;DHT22;5599;52.210;21.046;2024-01-11T04:30:48;-4.20;99.90
11091;DHT22;5599;52.210;21.046;2024-01-11T04:33:17;-4.20;99.90
11091;DHT22;5599;52.210;21.046;2024-01-11T04:35:46;-4.20;99.90
11091;DHT22;5599;52.210;21.046;2024-01-11T04:38:15;-4.20;99.90
11091;DHT22;5599;52.210;21.046;2024-01-11T04:40:47;-4.20;99.90
11091;DHT22;5599;52.210;21.046;2024-01-11T04:43:17;-4.20;1.00
11091;DHT22;5599;52.210;21.046;2024-01-11T04:45:46;-4.20;1.00
11091;DHT22;5599;52.210;21.046;2024-01-11T04:48:15;-4.10;1.00
11091;DHT22;5599;52.210;21.046;2024-01-11T04:50:46;-4.00;1.00
11091;DHT22;5599;52.210;21.046;2024-01-11T04:53:16;-4.00;1.00
11091;DHT22;5599;52.210;21.046;2024-01-11T04:55:46;-4.10;1.00
11091;DHT22;5599;52.210;21.046;2024-01-11T04:58:16;-4.10;1.00
11091;DHT22;5599;52.210;21.046;2024-01-11T05:00:46;-4.10;1.00
11091;DHT22;5599;52.210;21.046;2024-01-11T05:03:15;-4.00;1.00
11091;DHT22;5599;52.210;21.046;2024-01-11T05:05:44;-4.00;1.00
11091;DHT22;5599;52.210;21.046;2024-01-11T05:08:14;-4.10;1.00
11091;DHT22;5599;52.210;21.046;2024-01-11T05:10:43;-4.00;1.00
11091;DHT22;5599;52.210;21.046;2024-01-11T05:13:14;-4.20;1.00
11091;DHT22;5599;52.210;21.046;2024-01-11T05:15:43;-4.20;1.00
11091;DHT22;5599;52.210;21.046;2024-01-11T05:18:13;-4.10;1.00
11091;DHT22;5599;52.210;21.046;2024-01-11T05:20:42;-4.10;1.00
11091;DHT22;5599;52.210;21.046;2024-01-11T05:23:12;-4.00;1.00
11091;DHT22;5599;52.210;21.046;2024-01-11T05:25:41;-4.00;1.00
11091;DHT22;5599;52.210;21.046;2024-01-11T05:28:10;-4.00;1.00
11091;DHT22;5599;52.210;21.046;2024-01-11T05:30:42;-4.10;1.00
11091;DHT22;5599;52.210;21.046;2024-01-11T05:33:12;-4.10;1.00
11091;DHT22;5599;52.210;21.046;2024-01-11T05:35:41;-4.00;1.00
11091;DHT22;5599;52.210;21.046;2024-01-11T05:38:10;-4.10;1.00
11091;DHT22;5599;52.210;21.046;2024-01-11T05:40:40;-4.10;1.00
11091;DHT22;5599;52.210;21.046;2024-01-11T05:43:09;-4.00;1.00
11091;DHT22;5599;52.210;21.046;2024-01-11T05:45:38;-4.00;1.00
11091;DHT22;5599;52.210;21.046;2024-01-11T05:48:16;-4.00;1.00
11091;DHT22;5599;52.210;21.046;2024-01-11T05:50:46;-4.00;1.00
11091;DHT22;5599;52.210;21.046;2024-01-11T05:53:16;-3.90;1.00
11091;DHT22;5599;52.210;21.046;2024-01-11T05:55:48;-3.80;1.00
11091;DHT22;5599;52.210;21.046;2024-01-11T05:58:21;-3.80;1.00
11091;DHT22;5599;52.210;21.046;2024-01-11T06:00:50;-3.80;1.00
11091;DHT22;5599;52.210;21.046;2024-01-11T06:03:20;-3.80;1.00
11091;DHT22;5599;52.210;21.046;2024-01-11T06:05:49;-3.70;1.00
11091;DHT22;5599;52.210;21.046;2024-01-11T06:08:19;-3.70;1.00
11091;DHT22;5599;52.210;21.046;2024-01-11T06:10:49;-3.70;99.90
11091;DHT22;5599;52.210;21.046;2024-01-11T06:13:18;-3.80;99.90
11091;DHT22;5599;52.210;21.046;2024-01-11T06:15:47;-3.80;99.90
11091;DHT22;5599;52.210;21.046;2024-01-11T06:18:17;-3.80;99.90
11091;DHT22;5599;52.210;21.046;2024-01-11T06:20:48;-3.80;99.90
11091;DHT22;5599;52.210;21.046;2024-01-11T06:23:17;-3.80;99.90
11091;DHT22;5599;52.210;21.046;2024-01-11T06:25:47;-3.80;99.90
11091;DHT22;5599;52.210;21.046;2024-01-11T06:28:16;-3.80;99.90
11091;DHT22;5599;52.210;21.046;2024-01-11T06:30:45;-3.70;99.90
11091;DHT22;5599;52.210;21.046;2024-01-11T06:33:14;-3.70;99.90
11091;DHT22;5599;52.210;21.046;2024-01-11T06:35:44;-3.80;99.90
11091;DHT22;5599;52.210;21.046;2024-01-11T06:38:14;-3.80;99.90
11091;DHT22;5599;52.210;21.046;2024-01-11T06:40:44;-3.70;99.90
11091;DHT22;5599;52.210;21.046;2024-01-11T06:43:13;-3.70;99.90
11091;DHT22;5599;52.210;21.046;2024-01-11T06:45:42;-3.80;99.90
11091;DHT22;5599;52.210;21.046;2024-01-11T06:48:12;-3.70;99.90
11091;DHT22;5599;52.210;21.046;2024-01-11T06:50:42;-3.70;99.90
11091;DHT22;5599;52.210;21.046;2024-01-11T06:53:11;-3.70;99.90
11091;DHT22;5599;52.210;21.046;2024-01-11T06:55:41;-3.70;1.00
11091;DHT22;5599;52.210;21.046;2024-01-11T06:58:12;-3.60;1.00
11091;DHT22;5599;52.210;21.046;2024-01-11T07:00:41;-3.60;1.00
11091;DHT22;5599;52.210;21.046;2024-01-11T07:03:11;-3.50;1.00
11091;DHT22;5599;52.210;21.046;2024-01-11T07:05:41;-3.50;1.00
11091;DHT22;5599;52.210;21.046;2024-01-11T07:08:10;-3.40;1.00
11091;DHT22;5599;52.210;21.046;2024-01-11T07:10:41;-3.40;1.00
11091;DHT22;5599;52.210;21.046;2024-01-11T07:13:10;-3.40;1.00
11091;DHT22;5599;52.210;21.046;2024-01-11T07:15:40;-3.40;1.00
11091;DHT22;5599;52.210;21.046;2024-01-11T07:18:10;-3.40;1.00
11091;DHT22;5599;52.210;21.046;2024-01-11T07:20:39;-3.40;1.00
11091;DHT22;5599;52.210;21.046;2024-01-11T07:23:09;-3.30;1.00
11091;DHT22;5599;52.210;21.046;2024-01-11T07:25:38;-3.30;1.00
11091;DHT22;5599;52.210;21.046;2024-01-11T07:28:09;-3.30;1.00
11091;DHT22;5599;52.210;21.046;2024-01-11T07:30:38;-3.30;1.00
11091;DHT22;5599;52.210;21.046;2024-01-11T07:33:08;-3.30;1.00
11091;DHT22;5599;52.210;21.046;2024-01-11T07:35:38;-3.20;1.00
11091;DHT22;5599;52.210;21.046;2024-01-11T07:38:08;-3.20;1.00
11091;DHT22;5599;52.210;21.046;2024-01-11T07:40:37;-3.20;1.00
11091;DHT22;5599;52.210;21.046;2024-01-11T07:43:12;-3.20;1.00
11091;DHT22;5599;52.210;21.046;2024-01-11T07:45:41;-3.20;1.00
11091;DHT22;5599;52.210;21.046;2024-01-11T07:48:10;-3.20;1.00
11091;DHT22;5599;52.210;21.046;2024-01-11T07:50:41;-3.10;1.00
11091;DHT22;5599;52.210;21.046;2024-01-11T07:53:10;-3.00;1.00
11091;DHT22;5599;52.210;21.046;2024-01-11T07:55:39;-3.00;1.00
11091;DHT22;5599;52.210;21.046;2024-01-11T07:58:08;-3.00;1.00
11091;DHT22;5599;52.210;21.046;2024-01-11T08:00:41;-2.90;1.00
11091;DHT22;5599;52.210;21.046;2024-01-11T08:03:10;-2.80;1.00
11091;DHT22;5599;52.210;21.046;2024-01-11T08:05:39;-2.70;1.00
11091;DHT22;5599;52.210;21.046;2024-01-11T08:08:09;-2.70;1.00
11091;DHT22;5599;52.210;21.046;2024-01-11T08:10:38;-2.80;1.00
11091;DHT22;5599;52.210;21.046;2024-01-11T08:13:07;-2.80;1.00
11091;DHT22;5599;52.210;21.046;2024-01-11T08:15:38;-2.70;1.00
11091;DHT22;5599;52.210;21.046;2024-01-11T08:18:08;-2.70;1.00
11091;DHT22;5599;52.210;21.046;2024-01-11T08:20:39;-2.70;1.00
11091;DHT22;5599;52.210;21.046;2024-01-11T08:23:09;-2.70;1.00
11091;DHT22;5599;52.210;21.046;2024-01-11T08:25:38;-2.60;1.00
11091;DHT22;5599;52.210;21.046;2024-01-11T08:28:07;-2.60;1.00
11091;DHT22;5599;52.210;21.046;2024-01-11T08:30:37;-2.60;1.00
11091;DHT22;5599;52.210;21.046;2024-01-11T08:33:07;-2.60;1.00
11091;DHT22;5599;52.210;21.046;2024-01-11T08:35:36;-2.60;1.00
11091;DHT22;5599;52.210;21.046;2024-01-11T08:38:08;-2.60;1.00
11091;DHT22;5599;52.210;21.046;2024-01-11T08:40:38;-2.50;1.00
11091;DHT22;5599;52.210;21.046;2024-01-11T08:43:07;-2.50;1.00
11091;DHT22;5599;52.210;21.046;2024-01-11T08:45:38;-2.50;1.00
11091;DHT22;5599;52.210;21.046;2024-01-11T08:48:08;-2.50;1.00
11091;DHT22;5599;52.210;21.046;2024-01-11T08:50:39;-2.50;3.50
11091;DHT22;5599;52.210;21.046;2024-01-11T08:53:08;-2.40;12.80
11091;DHT22;5599;52.210;21.046;2024-01-11T08:55:38;-2.40;16.00
11091;DHT22;5599;52.210;21.046;2024-01-11T08:58:10;-2.40;24.90
11091;DHT22;5599;52.210;21.046;2024-01-11T09:00:39;-2.40;35.00
11091;DHT22;5599;52.210;21.046;2024-01-11T09:03:10;-2.40;30.30
11091;DHT22;5599;52.210;21.046;2024-01-11T09:05:42;-2.40;1.00
11091;DHT22;5599;52.210;21.046;2024-01-11T09:08:11;-2.40;25.50
11091;DHT22;5599;52.210;21.046;2024-01-11T09:10:41;-2.40;34.90
11091;DHT22;5599;52.210;21.046;2024-01-11T09:13:10;-2.40;45.40
11091;DHT22;5599;52.210;21.046;2024-01-11T09:15:41;-2.30;57.00
11091;DHT22;5599;52.210;21.046;2024-01-11T09:18:12;-2.30;62.50
11091;DHT22;5599;52.210;21.046;2024-01-11T09:20:41;-2.20;58.20
11091;DHT22;5599;52.210;21.046;2024-01-11T09:23:11;-2.20;64.80
11091;DHT22;5599;52.210;21.046;2024-01-11T09:25:40;-2.10;58.10
11091;DHT22;5599;52.210;21.046;2024-01-11T09:28:09;-2.10;36.70
11091;DHT22;5599;52.210;21.046;2024-01-11T09:30:38;-2.10;16.10
11091;DHT22;5599;52.210;21.046;2024-01-11T09:33:08;-2.00;1.00
11091;DHT22;5599;52.210;21.046;2024-01-11T09:35:38;-2.10;1.00
11091;DHT22;5599;52.210;21.046;2024-01-11T09:38:08;-2.00;1.00
11091;DHT22;5599;52.210;21.046;2024-01-11T09:40:38;-1.90;1.00
11091;DHT22;5599;52.210;21.046;2024-01-11T09:43:09;-1.80;1.00
11091;DHT22;5599;52.210;21.046;2024-01-11T09:45:39;-1.80;1.00
11091;DHT22;5599;52.210;21.046;2024-01-11T09:48:10;-1.70;1.00
11091;DHT22;5599;52.210;21.046;2024-01-11T09:50:41;-1.70;1.00
11091;DHT22;5599;52.210;21.046;2024-01-11T09:53:10;-1.60;1.00
11091;DHT22;5599;52.210;21.046;2024-01-11T09:55:40;-1.60;1.00
11091;DHT22;5599;52.210;21.046;2024-01-11T09:58:10;-1.60;1.00
11091;DHT22;5599;52.210;21.046;2024-01-11T10:00:39;-1.60;1.00
11091;DHT22;5599;52.210;21.046;2024-01-11T10:03:09;-1.50;1.00
11091;DHT22;5599;52.210;21.046;2024-01-11T10:05:38;-1.40;1.00
11091;DHT22;5599;52.210;21.046;2024-01-11T10:08:10;-1.40;1.00
11091;DHT22;5599;52.210;21.046;2024-01-11T10:10:39;-1.40;1.00
11091;DHT22;5599;52.210;21.046;2024-01-11T10:13:10;-1.40;1.00
11091;DHT22;5599;52.210;21.046;2024-01-11T10:15:39;-1.40;1.00
11091;DHT22;5599;52.210;21.046;2024-01-11T10:18:08;-1.30;1.00
11091;DHT22;5599;52.210;21.046;2024-01-11T10:20:38;-1.30;1.00
11091;DHT22;5599;52.210;21.046;2024-01-11T10:23:09;-1.30;1.00
11091;DHT22;5599;52.210;21.046;2024-01-11T10:25:38;-1.20;1.00
11091;DHT22;5599;52.210;21.046;2024-01-11T10:28:07;-1.20;1.00
11091;DHT22;5599;52.210;21.046;2024-01-11T10:30:37;-1.20;1.00
11091;DHT22;5599;52.210;21.046;2024-01-11T10:33:09;-1.10;1.00
11091;DHT22;5599;52.210;21.046;2024-01-11T10:35:40;-1.10;1.00
11091;DHT22;5599;52.210;21.046;2024-01-11T10:38:12;-1.10;1.00
11091;DHT22;5599;52.210;21.046;2024-01-11T10:40:42;-1.10;1.00
11091;DHT22;5599;52.210;21.046;2024-01-11T10:43:13;-1.10;1.00
11091;DHT22;5599;52.210;21.046;2024-01-11T10:45:44;-1.10;1.00
11091;DHT22;5599;52.210;21.046;2024-01-11T10:48:16;-1.10;1.00
11091;DHT22;5599;52.210;21.046;2024-01-11T10:50:46;-1.10;1.00
11091;DHT22;5599;52.210;21.046;2024-01-11T10:53:28;-1.20;1.00
11091;DHT22;5599;52.210;21.046;2024-01-11T10:56:01;-1.10;1.00
11091;DHT22;5599;52.210;21.046;2024-01-11T10:58:33;-1.00;1.00
11091;DHT22;5599;52.210;21.046;2024-01-11T11:01:03;-1.00;1.00
11091;DHT22;5599;52.210;21.046;2024-01-11T11:03:34;-1.00;1.00
11091;DHT22;5599;52.210;21.046;2024-01-11T11:06:05;-0.90;1.00
11091;DHT22;5599;52.210;21.046;2024-01-11T11:08:36;-1.00;1.00
11091;DHT22;5599;52.210;21.046;2024-01-11T11:11:06;-1.00;1.00
11091;DHT22;5599;52.210;21.046;2024-01-11T11:13:36;-1.00;1.00
11091;DHT22;5599;52.210;21.046;2024-01-11T11:16:06;-1.00;1.00
11091;DHT22;5599;52.210;21.046;2024-01-11T11:18:36;-1.00;1.00
11091;DHT22;5599;52.210;21.046;2024-01-11T11:21:09;-1.00;1.00
11091;DHT22;5599;52.210;21.046;2024-01-11T11:23:39;-0.90;1.00
11091;DHT22;5599;52.210;21.046;2024-01-11T11:26:14;-0.90;1.00
11091;DHT22;5599;52.210;21.046;2024-01-11T11:28:44;-1.00;1.00
11091;DHT22;5599;52.210;21.046;2024-01-11T11:31:13;-1.00;1.00
11091;DHT22;5599;52.210;21.046;2024-01-11T11:34:04;-1.00;1.00
11091;DHT22;5599;52.210;21.046;2024-01-11T11:36:34;-0.90;1.00
11091;DHT22;5599;52.210;21.046;2024-01-11T11:39:05;-0.90;1.00
11091;DHT22;5599;52.210;21.046;2024-01-11T11:41:35;-0.90;1.00
11091;DHT22;5599;52.210;21.046;2024-01-11T11:44:06;-0.90;1.00
11091;DHT22;5599;52.210;21.046;2024-01-11T11:46:36;-0.90;1.20
11091;DHT22;5599;52.210;21.046;2024-01-11T11:49:06;-0.80;20.80
11091;DHT22;5599;52.210;21.046;2024-01-11T11:51:35;-0.80;32.00
11091;DHT22;5599;52.210;21.046;2024-01-11T11:54:09;-0.80;59.90
11091;DHT22;5599;52.210;21.046;2024-01-11T11:56:39;-0.70;68.50
11091;DHT22;5599;52.210;21.046;2024-01-11T11:59:09;-0.70;91.10
11091;DHT22;5599;52.210;21.046;2024-01-11T12:01:39;-0.70;69.30
11091;DHT22;5599;52.210;21.046;2024-01-11T12:04:08;-0.60;71.40
11091;DHT22;5599;52.210;21.046;2024-01-11T12:06:37;-0.70;30.80
11091;DHT22;5599;52.210;21.046;2024-01-11T12:09:09;-0.70;20.60
11091;DHT22;5599;52.210;21.046;2024-01-11T12:11:39;-0.70;10.40
11091;DHT22;5599;52.210;21.046;2024-01-11T12:14:09;-0.60;47.70
11091;DHT22;5599;52.210;21.046;2024-01-11T12:16:39;-0.70;29.00
11091;DHT22;5599;52.210;21.046;2024-01-11T12:19:08;-0.70;38.00
11091;DHT22;5599;52.210;21.046;2024-01-11T12:21:37;-0.60;62.60
11091;DHT22;5599;52.210;21.046;2024-01-11T12:24:09;-0.70;46.40
11091;DHT22;5599;52.210;21.046;2024-01-11T12:26:38;-0.60;54.60
11091;DHT22;5599;52.210;21.046;2024-01-11T12:29:07;-0.60;27.20
11091;DHT22;5599;52.210;21.046;2024-01-11T12:31:38;-0.70;36.60
11091;DHT22;5599;52.210;21.046;2024-01-11T12:34:08;-0.60;51.10
11091;DHT22;5599;52.210;21.046;2024-01-11T12:36:37;-0.50;52.40
11091;DHT22;5599;52.210;21.046;2024-01-11T12:39:08;-0.40;31.60
11091;DHT22;5599;52.210;21.046;2024-01-11T12:41:41;-0.50;6.50
11091;DHT22;5599;52.210;21.046;2024-01-11T12:44:11;-0.40;9.20
11091;DHT22;5599;52.210;21.046;2024-01-11T12:46:42;-0.40;1.00
11091;DHT22;5599;52.210;21.046;2024-01-11T12:49:12;-0.50;1.00
11091;DHT22;5599;52.210;21.046;2024-01-11T12:51:41;-0.40;1.00
11091;DHT22;5599;52.210;21.046;2024-01-11T12:54:13;-0.40;1.00
11091;DHT22;5599;52.210;21.046;2024-01-11T12:56:43;-0.40;1.00
11091;DHT22;5599;52.210;21.046;2024-01-11T12:59:13;-0.30;1.00
11091;DHT22;5599;52.210;21.046;2024-01-11T13:01:44;-0.40;1.00
11091;DHT22;5599;52.210;21.046;2024-01-11T13:04:13;-0.30;1.00
11091;DHT22;5599;52.210;21.046;2024-01-11T13:06:42;-0.30;1.00
11091;DHT22;5599;52.210;21.046;2024-01-11T13:09:13;-0.30;1.00
11091;DHT22;5599;52.210;21.046;2024-01-11T13:11:42;-0.30;1.00
11091;DHT22;5599;52.210;21.046;2024-01-11T13:14:12;-0.20;1.00
11091;DHT22;5599;52.210;21.046;2024-01-11T13:16:47;-0.20;1.00
11091;DHT22;5599;52.210;21.046;2024-01-11T13:19:18;-0.10;1.00
11091;DHT22;5599;52.210;21.046;2024-01-11T13:21:54;-0.10;1.00
11091;DHT22;5599;52.210;21.046;2024-01-11T13:24:26;-0.20;1.00
11091;DHT22;5599;52.210;21.046;2024-01-11T13:26:56;-0.10;1.00
11091;DHT22;5599;52.210;21.046;2024-01-11T13:29:25;-0.10;1.00
11091;DHT22;5599;52.210;21.046;2024-01-11T13:31:55;-0.10;1.00
11091;DHT22;5599;52.210;21.046;2024-01-11T13:34:27;0.00;1.00
11091;DHT22;5599;52.210;21.046;2024-01-11T13:36:56;0.00;1.00
11091;DHT22;5599;52.210;21.046;2024-01-11T13:39:28;0.00;1.00
11091;DHT22;5599;52.210;21.046;2024-01-11T13:41:58;0.00;1.00
11091;DHT22;5599;52.210;21.046;2024-01-11T13:44:27;0.00;1.00
11091;DHT22;5599;52.210;21.046;2024-01-11T13:46:57;0.00;1.00
11091;DHT22;5599;52.210;21.046;2024-01-11T13:49:27;0.00;1.00
11091;DHT22;5599;52.210;21.046;2024-01-11T13:51:56;0.00;1.00
11091;DHT22;5599;52.210;21.046;2024-01-11T13:54:30;0.00;1.00
11091;DHT22;5599;52.210;21.046;2024-01-11T13:57:01;0.00;1.00
11091;DHT22;5599;52.210;21.046;2024-01-11T13:59:33;0.00;1.00
11091;DHT22;5599;52.210;21.046;2024-01-11T14:02:02;0.00;1.00
11091;DHT22;5599;52.210;21.046;2024-01-11T14:04:32;0.00;1.00
11091;DHT22;5599;52.210;21.046;2024-01-11T14:07:02;0.00;1.00
11091;DHT22;5599;52.210;21.046;2024-01-11T14:09:33;0.10;1.00
11091;DHT22;5599;52.210;21.046;2024-01-11T14:12:03;0.10;1.00
11091;DHT22;5599;52.210;21.046;2024-01-11T14:14:33;0.10;1.00
11091;DHT22;5599;52.210;21.046;2024-01-11T14:17:17;0.20;1.00
11091;DHT22;5599;52.210;21.046;2024-01-11T14:19:46;0.20;1.00
11091;DHT22;5599;52.210;21.046;2024-01-11T14:22:15;0.20;4.90
11091;DHT22;5599;52.210;21.046;2024-01-11T14:24:46;0.20;7.50
11091;DHT22;5599;52.210;21.046;2024-01-11T14:27:16;0.20;1.00
11091;DHT22;5599;52.210;21.046;2024-01-11T14:29:45;0.20;5.60
11091;DHT22;5599;52.210;21.046;2024-01-11T14:32:15;0.20;51.30
11091;DHT22;5599;52.210;21.046;2024-01-11T14:35:00;0.30;52.80
11091;DHT22;5599;52.210;21.046;2024-01-11T14:37:33;0.30;30.60
11091;DHT22;5599;52.210;21.046;2024-01-11T14:40:06;0.30;57.20
11091;DHT22;5599;52.210;21.046;2024-01-11T14:42:37;0.40;62.70
11091;DHT22;5599;52.210;21.046;2024-01-11T14:45:07;0.40;68.90
11091;DHT22;5599;52.210;21.046;2024-01-11T14:47:36;0.40;75.80
11091;DHT22;5599;52.210;21.046;2024-01-11T14:50:07;0.40;82.40
11091;DHT22;5599;52.210;21.046;2024-01-11T14:52:38;0.40;92.40
11091;DHT22;5599;52.210;21.046;2024-01-11T14:55:09;0.50;99.90
11091;DHT22;5599;52.210;21.046;2024-01-11T14:57:39;0.50;99.90
11091;DHT22;5599;52.210;21.046;2024-01-11T15:00:10;0.60;99.90
11091;DHT22;5599;52.210;21.046;2024-01-11T15:02:41;0.60;99.90
11091;DHT22;5599;52.210;21.046;2024-01-11T15:05:13;0.60;99.90
11091;DHT22;5599;52.210;21.046;2024-01-11T15:07:43;0.60;99.90
11091;DHT22;5599;52.210;21.046;2024-01-11T15:10:14;0.60;99.90
11091;DHT22;5599;52.210;21.046;2024-01-11T15:12:43;0.70;99.90
11091;DHT22;5599;52.210;21.046;2024-01-11T15:15:13;0.80;99.90
11091;DHT22;5599;52.210;21.046;2024-01-11T15:17:42;0.80;99.90
11091;DHT22;5599;52.210;21.046;2024-01-11T15:20:12;0.80;99.90
11091;DHT22;5599;52.210;21.046;2024-01-11T15:22:41;0.80;99.90
11091;DHT22;5599;52.210;21.046;2024-01-11T15:25:12;0.80;99.90
11091;DHT22;5599;52.210;21.046;2024-01-11T15:27:41;0.90;99.90
11091;DHT22;5599;52.210;21.046;2024-01-11T15:30:11;1.00;99.90
11091;DHT22;5599;52.210;21.046;2024-01-11T15:32:41;1.00;99.90
11091;DHT22;5599;52.210;21.046;2024-01-11T15:35:11;1.10;99.90
11091;DHT22;5599;52.210;21.046;2024-01-11T15:37:41;1.10;99.90
11091;DHT22;5599;52.210;21.046;2024-01-11T15:40:11;1.20;99.90
11091;DHT22;5599;52.210;21.046;2024-01-11T15:42:42;1.20;99.90
11091;DHT22;5599;52.210;21.046;2024-01-11T15:45:11;1.30;99.90
11091;DHT22;5599;52.210;21.046;2024-01-11T15:47:40;1.30;99.90
11091;DHT22;5599;52.210;21.046;2024-01-11T15:50:09;1.30;99.90
11091;DHT22;5599;52.210;21.046;2024-01-11T15:52:39;1.30;99.90
11091;DHT22;5599;52.210;21.046;2024-01-11T15:55:09;1.40;99.90
11091;DHT22;5599;52.210;21.046;2024-01-11T15:57:38;1.50;99.90
11091;DHT22;5599;52.210;21.046;2024-01-11T16:00:10;1.50;99.90